createdAt,value
2018-09-29T00:00:59.191Z,43.80
2018-09-29T00:03:26.773Z,43.40
2018-09-29T00:05:54.407Z,44.00
2018-09-29T00:08:22.070Z,43.80
2018-09-29T00:10:51.168Z,44.20
2018-09-29T00:13:19.114Z,44.30
2018-09-29T00:15:48.126Z,44.90
2018-09-29T00:18:16.470Z,44.80
2018-09-29T00:20:44.186Z,46.90
2018-09-29T00:23:11.993Z,48.00
2018-09-29T00:25:39.653Z,47.50
2018-09-29T00:28:07.317Z,48.00
2018-09-29T00:30:35.158Z,49.20
2018-09-29T00:33:04.507Z,49.10
2018-09-29T00:35:32.244Z,49.80
2018-09-29T00:38:01.229Z,50.00
2018-09-29T00:40:29.476Z,50.20
2018-09-29T00:42:57.153Z,50.00
2018-09-29T00:45:25.911Z,50.80
2018-09-29T00:47:53.517Z,51.90
2018-09-29T00:50:21.206Z,52.10
2018-09-29T00:52:49.592Z,53.80
2018-09-29T00:55:17.980Z,53.90
2018-09-29T00:57:46.933Z,54.10
2018-09-29T01:00:14.685Z,54.40
2018-09-29T01:02:42.485Z,53.20
2018-09-29T01:05:10.166Z,53.70
2018-09-29T01:07:37.774Z,53.60
2018-09-29T01:10:05.389Z,55.40
2018-09-29T01:12:33.698Z,55.30
2018-09-29T01:15:01.547Z,56.10
2018-09-29T01:17:29.793Z,57.00
2018-09-29T01:19:58.642Z,57.20
2018-09-29T01:22:26.906Z,53.40
2018-09-29T01:24:54.576Z,55.80
2018-09-29T01:27:22.953Z,56.20
2018-09-29T01:29:50.611Z,56.60
2018-09-29T01:32:18.271Z,57.10
2018-09-29T01:34:45.972Z,56.40
2018-09-29T01:37:14.185Z,56.60
2018-09-29T01:39:42.439Z,57.20
2018-09-29T01:42:10.861Z,57.10
2018-09-29T01:44:38.454Z,56.70
2018-09-29T01:47:06.036Z,57.20
2018-09-29T01:49:33.644Z,57.60
2018-09-29T01:52:04.578Z,57.90
2018-09-29T01:54:32.625Z,58.10
2018-09-29T01:57:00.328Z,58.00
2018-09-29T01:59:28.613Z,59.70
2018-09-29T02:01:56.934Z,58.50
2018-09-29T02:04:24.539Z,58.70
2018-09-29T02:06:52.243Z,58.10
2018-09-29T02:09:19.866Z,58.50
2018-09-29T02:11:47.500Z,57.10
2018-09-29T02:14:15.294Z,57.30
2018-09-29T02:16:42.953Z,57.50
2018-09-29T02:19:10.502Z,57.60
2018-09-29T02:21:38.857Z,57.80
2018-09-29T02:24:06.869Z,59.10
2018-09-29T02:26:34.518Z,58.10
2018-09-29T02:29:02.825Z,57.80
2018-09-29T02:31:30.487Z,57.40
2018-09-29T02:33:58.113Z,55.90
2018-09-29T02:36:25.697Z,56.20
2018-09-29T02:38:53.506Z,56.50
2018-09-29T02:41:21.907Z,56.20
2018-09-29T02:43:49.626Z,55.80
2018-09-29T02:46:17.372Z,55.00
2018-09-29T02:48:45.616Z,55.00
2018-09-29T02:51:13.911Z,53.90
2018-09-29T02:53:41.509Z,54.30
2018-09-29T02:56:09.802Z,55.00
2018-09-29T02:58:38.877Z,55.20
2018-09-29T03:01:06.554Z,54.60
2018-09-29T03:03:35.554Z,54.00
2018-09-29T03:06:03.161Z,53.80
2018-09-29T03:08:30.859Z,53.50
2018-09-29T03:10:58.679Z,52.90
2018-09-29T03:13:26.378Z,52.90
2018-09-29T03:15:54.001Z,51.90
2018-09-29T03:18:23.002Z,52.10
2018-09-29T03:20:51.236Z,52.40
2018-09-29T03:23:19.435Z,52.50
2018-09-29T03:25:47.117Z,52.00
2018-09-29T03:28:14.822Z,52.70
2018-09-29T03:30:43.898Z,52.30
2018-09-29T03:33:11.553Z,52.00
2018-09-29T03:35:39.228Z,52.10
2018-09-29T03:38:06.856Z,51.90
2018-09-29T03:40:34.472Z,51.60
2018-09-29T03:43:02.282Z,51.40
2018-09-29T03:45:30.288Z,51.20
2018-09-29T03:47:57.908Z,50.90
2018-09-29T03:50:26.222Z,51.10
2018-09-29T03:52:55.046Z,51.00
2018-09-29T03:55:22.834Z,50.20
2018-09-29T03:57:50.452Z,51.10
2018-09-29T04:00:18.078Z,50.60
2018-09-29T04:02:45.807Z,51.40
2018-09-29T04:05:13.406Z,51.10
2018-09-29T04:07:40.954Z,51.40
2018-09-29T04:10:09.366Z,51.70
2018-09-29T04:12:37.009Z,51.50
2018-09-29T04:15:05.922Z,52.70
2018-09-29T04:17:33.710Z,53.30
2018-09-29T04:20:01.417Z,52.40
2018-09-29T04:22:29.015Z,52.80
2018-09-29T04:24:56.641Z,52.70
2018-09-29T04:27:25.628Z,52.60
2018-09-29T04:29:53.247Z,52.70
2018-09-29T04:32:20.909Z,52.70
2018-09-29T04:34:48.513Z,52.60
2018-09-29T04:37:16.161Z,52.70
2018-09-29T04:39:43.900Z,52.60
2018-09-29T04:42:12.144Z,52.60
2018-09-29T04:44:40.312Z,52.60
2018-09-29T04:47:08.021Z,53.20
2018-09-29T04:49:35.822Z,52.50
2018-09-29T04:52:04.261Z,54.10
2018-09-29T04:54:31.886Z,54.70
2018-09-29T04:56:59.992Z,54.70
2018-09-29T04:59:28.459Z,54.40
2018-09-29T05:01:56.209Z,55.10
2018-09-29T05:04:23.918Z,53.70
2018-09-29T05:06:51.590Z,53.20
2018-09-29T05:09:19.388Z,52.50
2018-09-29T05:11:47.823Z,54.30
2018-09-29T05:14:16.140Z,53.20
2018-09-29T05:16:44.334Z,53.30
2018-09-29T05:19:12.031Z,53.30
2018-09-29T05:21:39.728Z,53.90
2018-09-29T05:24:07.494Z,54.90
2018-09-29T05:26:35.239Z,54.10
2018-09-29T05:29:03.001Z,54.30
2018-09-29T05:31:31.461Z,54.40
2018-09-29T05:33:59.178Z,55.60
2018-09-29T05:36:26.885Z,56.90
2018-09-29T05:38:54.720Z,52.40
2018-09-29T05:41:23.030Z,53.30
2018-09-29T05:43:50.659Z,53.40
2018-09-29T05:46:18.513Z,52.50
2018-09-29T05:48:46.251Z,52.40
2018-09-29T05:51:13.860Z,51.50
2018-09-29T05:53:41.571Z,51.70
2018-09-29T05:56:09.637Z,53.10
2018-09-29T05:58:38.041Z,52.50
2018-09-29T06:01:05.869Z,50.40
2018-09-29T06:03:33.562Z,49.70
2018-09-29T06:06:02.629Z,53.30
2018-09-29T06:08:30.842Z,51.30
2018-09-29T06:10:58.645Z,53.60
2018-09-29T06:13:26.342Z,50.70
2018-09-29T06:15:53.954Z,50.50
2018-09-29T06:18:22.277Z,52.10
2018-09-29T06:20:50.393Z,51.70
2018-09-29T06:23:18.095Z,51.60
2018-09-29T06:25:45.746Z,51.30
2018-09-29T06:28:13.383Z,53.40
2018-09-29T06:30:41.166Z,52.90
2018-09-29T06:33:08.780Z,51.40
2018-09-29T06:35:36.465Z,51.40
2018-09-29T06:38:04.481Z,51.30
2018-09-29T06:40:33.097Z,51.00
2018-09-29T06:43:00.857Z,51.20
2018-09-29T06:45:28.616Z,50.40
2018-09-29T06:47:57.060Z,50.10
2018-09-29T06:50:24.765Z,51.40
2018-09-29T06:52:52.366Z,51.70
2018-09-29T06:55:20.549Z,49.20
2018-09-29T06:57:48.154Z,50.30
2018-09-29T07:00:15.874Z,49.10
2018-09-29T07:02:44.178Z,49.70
2018-09-29T07:05:11.891Z,46.90
2018-09-29T07:07:39.854Z,50.10
2018-09-29T07:10:07.735Z,47.70
2018-09-29T07:12:35.327Z,47.00
2018-09-29T07:15:03.029Z,47.00
2018-09-29T07:17:30.703Z,47.80
2018-09-29T07:19:58.583Z,46.00
2018-09-29T07:22:26.309Z,46.40
2018-09-29T07:24:55.122Z,46.80
2018-09-29T07:27:22.802Z,44.70
2018-09-29T07:29:51.761Z,44.60
2018-09-29T07:32:20.111Z,45.40
2018-09-29T07:34:47.943Z,44.90
2018-09-29T07:37:15.714Z,46.40
2018-09-29T07:39:43.495Z,45.20
2018-09-29T07:42:12.048Z,44.10
2018-09-29T07:44:39.774Z,43.10
2018-09-29T07:47:07.652Z,43.00
2018-09-29T07:49:35.888Z,43.20
2018-09-29T07:52:05.091Z,41.60
2018-09-29T07:54:32.792Z,42.40
2018-09-29T07:57:00.593Z,42.50
2018-09-29T07:59:28.470Z,41.70
2018-09-29T08:01:56.315Z,41.80
2018-09-29T08:04:24.246Z,42.10
2018-09-29T08:06:51.949Z,41.00
2018-09-29T08:09:20.949Z,43.20
2018-09-29T08:11:48.971Z,41.80
2018-09-29T08:14:16.757Z,41.50
2018-09-29T08:16:44.981Z,42.80
2018-09-29T08:19:12.627Z,44.10
2018-09-29T08:21:40.395Z,40.70
2018-09-29T08:24:08.136Z,41.10
2018-09-29T08:26:36.321Z,40.20
2018-09-29T08:29:04.237Z,39.20
2018-09-29T08:31:32.062Z,39.10
2018-09-29T08:33:59.739Z,38.60
2018-09-29T08:36:27.972Z,38.30
2018-09-29T08:38:55.657Z,37.10
2018-09-29T08:41:23.377Z,36.50
2018-09-29T08:43:51.717Z,36.70
2018-09-29T08:46:19.348Z,35.30
2018-09-29T08:48:48.289Z,35.70
2018-09-29T08:51:16.651Z,35.60
2018-09-29T08:53:44.542Z,33.60
2018-09-29T08:56:12.905Z,34.50
2018-09-29T08:58:43.160Z,33.80
2018-09-29T09:01:10.909Z,34.00
2018-09-29T09:03:38.599Z,34.10
2018-09-29T09:06:06.915Z,33.40
2018-09-29T09:08:35.431Z,33.30
2018-09-29T09:11:03.371Z,32.80
2018-09-29T09:13:31.619Z,32.10
2018-09-29T09:15:59.265Z,31.90
2018-09-29T09:18:27.649Z,32.80
2018-09-29T09:20:55.480Z,33.20
2018-09-29T09:23:23.310Z,33.10
2018-09-29T09:25:51.844Z,33.20
2018-09-29T09:28:20.257Z,33.80
2018-09-29T09:30:48.581Z,34.00
2018-09-29T09:33:16.574Z,30.60
2018-09-29T09:35:44.395Z,31.60
2018-09-29T09:38:12.407Z,32.50
2018-09-29T09:40:40.183Z,32.50
2018-09-29T09:43:08.083Z,32.40
2018-09-29T09:45:35.765Z,30.50
2018-09-29T09:48:03.708Z,31.60
2018-09-29T09:50:31.503Z,31.10
2018-09-29T09:52:59.523Z,32.20
2018-09-29T09:55:27.228Z,30.90
2018-09-29T09:57:56.324Z,28.80
2018-09-29T10:01:27.353Z,29.10
2018-09-29T10:03:55.173Z,30.10
2018-09-29T10:06:23.618Z,29.50
2018-09-29T10:08:51.461Z,28.70
2018-09-29T10:11:19.199Z,29.40
2018-09-29T10:13:46.879Z,28.80
2018-09-29T10:16:14.690Z,28.80
2018-09-29T10:18:43.334Z,28.80
2018-09-29T10:21:14.520Z,28.90
2018-09-29T10:23:43.221Z,27.50
2018-09-29T10:26:11.272Z,27.40
2018-09-29T10:28:39.728Z,27.30
2018-09-29T10:31:08.409Z,27.70
2018-09-29T10:33:36.797Z,27.50
2018-09-29T10:36:04.731Z,27.70
2018-09-29T10:38:32.498Z,27.50
2018-09-29T10:41:03.449Z,26.10
2018-09-29T10:43:31.853Z,27.60
2018-09-29T10:46:00.410Z,27.70
2018-09-29T10:48:28.068Z,26.70
2018-09-29T10:50:56.095Z,27.40
2018-09-29T10:53:23.939Z,27.20
2018-09-29T10:55:52.679Z,27.50
2018-09-29T10:58:20.975Z,27.50
2018-09-29T11:00:48.850Z,27.90
2018-09-29T11:03:18.093Z,27.60
2018-09-29T11:05:46.056Z,27.60
2018-09-29T11:08:14.045Z,28.00
2018-09-29T11:10:42.058Z,27.60
2018-09-29T11:13:10.402Z,27.10
2018-09-29T11:15:38.112Z,27.50
2018-09-29T11:18:11.902Z,26.70
2018-09-29T11:20:40.574Z,26.40
2018-09-29T11:23:08.249Z,26.60
2018-09-29T11:25:35.895Z,26.80
2018-09-29T11:28:03.663Z,26.40
2018-09-29T11:30:31.441Z,26.00
2018-09-29T11:32:59.721Z,26.20
2018-09-29T11:35:27.694Z,25.50
2018-09-29T11:37:55.598Z,25.90
2018-09-29T11:40:23.486Z,25.00
2018-09-29T11:42:51.292Z,25.00
2018-09-29T11:45:19.167Z,24.50
2018-09-29T11:47:46.899Z,25.10
2018-09-29T11:50:14.941Z,23.80
2018-09-29T11:52:42.899Z,24.00
2018-09-29T11:55:10.858Z,23.60
2018-09-29T11:57:39.358Z,23.80
2018-09-29T12:00:07.426Z,23.20
2018-09-29T12:02:35.154Z,22.90
2018-09-29T12:05:03.255Z,23.10
2018-09-29T12:07:31.183Z,23.20
2018-09-29T12:09:58.845Z,23.60
2018-09-29T12:12:27.173Z,25.00
2018-09-29T12:14:54.966Z,24.00
2018-09-29T12:17:22.640Z,23.80
2018-09-29T12:19:50.497Z,23.70
2018-09-29T12:22:18.315Z,22.40
2018-09-29T12:24:46.001Z,23.90
2018-09-29T12:27:14.265Z,23.20
2018-09-29T12:29:42.086Z,23.30
2018-09-29T12:32:10.149Z,23.00
2018-09-29T12:34:39.156Z,22.90
2018-09-29T12:37:07.292Z,22.60
2018-09-29T12:39:34.990Z,23.50
2018-09-29T12:42:02.735Z,22.90
2018-09-29T12:44:30.799Z,23.50
2018-09-29T12:46:58.490Z,22.90
2018-09-29T12:49:27.064Z,22.10
2018-09-29T12:51:54.967Z,22.70
2018-09-29T12:54:22.647Z,23.40
2018-09-29T12:56:50.319Z,22.80
2018-09-29T12:59:18.273Z,23.60
2018-09-29T13:01:46.001Z,24.10
2018-09-29T13:04:13.953Z,24.30
2018-09-29T13:06:41.613Z,24.10
2018-09-29T13:09:09.441Z,23.80
2018-09-29T13:11:38.109Z,23.70
2018-09-29T13:14:06.023Z,23.30
2018-09-29T13:16:33.858Z,23.20
2018-09-29T13:19:01.850Z,23.40
2018-09-29T13:21:29.861Z,23.20
2018-09-29T13:23:57.709Z,22.00
2018-09-29T13:26:25.460Z,21.80
2018-09-29T13:28:53.374Z,20.20
2018-09-29T13:31:21.876Z,20.80
2018-09-29T13:33:49.697Z,21.00
2018-09-29T13:36:18.633Z,21.00
2018-09-29T13:38:48.497Z,21.40
2018-09-29T13:41:18.397Z,20.60
2018-09-29T13:43:46.197Z,21.10
2018-09-29T13:46:14.230Z,21.40
2018-09-29T13:48:41.916Z,21.40
2018-09-29T13:51:10.605Z,21.40
2018-09-29T13:53:38.567Z,21.80
2018-09-29T13:56:06.457Z,21.30
2018-09-29T13:58:34.335Z,21.60
2018-09-29T14:01:02.237Z,21.40
2018-09-29T14:03:30.203Z,21.40
2018-09-29T14:05:58.034Z,20.60
2018-09-29T14:08:26.654Z,21.40
2018-09-29T14:10:54.526Z,21.40
2018-09-29T14:13:22.197Z,21.40
2018-09-29T14:15:51.274Z,21.40
2018-09-29T14:18:19.685Z,20.50
2018-09-29T14:20:48.244Z,21.10
2018-09-29T14:23:16.001Z,21.40
2018-09-29T14:25:43.712Z,21.70
2018-09-29T14:28:12.619Z,21.80
2018-09-29T14:30:40.326Z,21.30
2018-09-29T14:33:08.341Z,19.80
2018-09-29T14:35:37.133Z,20.20
2018-09-29T14:38:04.977Z,21.40
2018-09-29T14:40:32.778Z,21.40
2018-09-29T14:43:00.573Z,21.60
2018-09-29T14:45:28.277Z,21.80
2018-09-29T14:47:56.083Z,21.80
2018-09-29T14:50:23.809Z,21.20
2018-09-29T14:52:51.458Z,21.70
2018-09-29T14:55:19.163Z,21.30
2018-09-29T14:57:46.945Z,21.30
2018-09-29T15:00:14.622Z,21.00
2018-09-29T15:02:43.329Z,20.50
2018-09-29T15:05:11.762Z,20.20
2018-09-29T15:07:39.585Z,20.50
2018-09-29T15:10:07.443Z,20.40
2018-09-29T15:12:35.270Z,21.10
2018-09-29T15:15:03.013Z,21.40
2018-09-29T15:17:31.020Z,21.60
2018-09-29T15:19:58.862Z,20.50
2018-09-29T15:22:26.680Z,20.60
2018-09-29T15:24:54.672Z,21.00
2018-09-29T15:27:23.642Z,20.50
2018-09-29T15:29:51.557Z,21.00
2018-09-29T15:32:19.365Z,21.10
2018-09-29T15:34:47.630Z,21.10
2018-09-29T15:37:15.953Z,21.10
2018-09-29T15:39:43.734Z,21.20
2018-09-29T15:42:11.598Z,21.30
2018-09-29T15:44:39.618Z,21.40
2018-09-29T15:47:07.418Z,21.50
2018-09-29T15:49:35.217Z,22.30
2018-09-29T15:52:02.963Z,22.30
2018-09-29T15:54:30.806Z,21.50
2018-09-29T15:56:59.795Z,21.50
2018-09-29T15:59:27.878Z,21.50
2018-09-29T16:01:55.637Z,21.60
2018-09-29T16:04:23.942Z,22.20
2018-09-29T16:06:52.289Z,22.20
2018-09-29T16:09:20.543Z,22.20
2018-09-29T16:11:48.767Z,22.20
2018-09-29T16:14:16.604Z,22.00
2018-09-29T16:16:44.506Z,22.20
2018-09-29T16:19:12.358Z,22.00
2018-09-29T16:21:40.220Z,23.30
2018-09-29T16:24:08.068Z,22.10
2018-09-29T16:26:37.154Z,22.20
2018-09-29T16:29:05.804Z,22.90
2018-09-29T16:31:33.510Z,22.40
2018-09-29T16:34:01.213Z,21.90
2018-09-29T16:36:29.643Z,23.30
2018-09-29T16:38:57.408Z,23.10
2018-09-29T16:41:25.337Z,23.10
2018-09-29T16:43:53.172Z,23.00
2018-09-29T16:46:21.619Z,22.80
2018-09-29T16:48:49.310Z,23.10
2018-09-29T16:51:17.248Z,23.80
2018-09-29T16:53:46.257Z,23.70
2018-09-29T16:56:13.954Z,24.60
2018-09-29T16:58:41.635Z,24.80
2018-09-29T17:01:09.594Z,24.70
2018-09-29T17:03:37.421Z,24.90
2018-09-29T17:06:05.140Z,24.80
2018-09-29T17:08:32.957Z,25.40
2018-09-29T17:11:00.788Z,25.10
2018-09-29T17:13:28.666Z,24.40
2018-09-29T17:15:56.452Z,24.40
2018-09-29T17:18:24.225Z,24.90
2018-09-29T17:20:51.945Z,25.20
2018-09-29T17:23:20.221Z,26.20
2018-09-29T17:25:48.202Z,25.70
2018-09-29T17:28:15.918Z,26.20
2018-09-29T17:30:44.197Z,27.20
2018-09-29T17:33:12.047Z,28.00
2018-09-29T17:35:39.798Z,28.00
2018-09-29T17:38:08.852Z,28.00
2018-09-29T17:40:36.532Z,28.40
2018-09-29T17:43:04.288Z,28.60
2018-09-29T17:45:32.167Z,28.80
2018-09-29T17:47:59.794Z,29.60
2018-09-29T17:50:27.513Z,30.30
2018-09-29T17:52:56.233Z,29.80
2018-09-29T17:55:24.114Z,29.70
2018-09-29T17:57:52.392Z,30.10
2018-09-29T18:00:20.194Z,30.80
2018-09-29T18:02:48.107Z,31.20
2018-09-29T18:05:15.781Z,32.10
2018-09-29T18:07:43.507Z,31.90
2018-09-29T18:10:11.203Z,33.00
2018-09-29T18:12:39.685Z,33.30
2018-09-29T18:15:08.048Z,32.90
2018-09-29T18:17:35.965Z,33.90
2018-09-29T18:20:04.907Z,36.20
2018-09-29T18:22:32.767Z,35.70
2018-09-29T18:25:00.749Z,37.90
2018-09-29T18:27:28.516Z,37.30
2018-09-29T18:29:56.285Z,38.40
2018-09-29T18:32:24.055Z,40.80
2018-09-29T18:34:51.998Z,41.10
2018-09-29T18:37:19.839Z,40.00
2018-09-29T18:39:47.517Z,41.00
2018-09-29T18:42:15.453Z,40.80
2018-09-29T18:44:43.217Z,41.70
2018-09-29T18:47:10.941Z,41.60
2018-09-29T18:49:38.915Z,42.50
2018-09-29T18:52:06.673Z,42.70
2018-09-29T18:54:34.517Z,41.90
2018-09-29T18:57:02.223Z,42.30
2018-09-29T18:59:30.169Z,41.50
2018-09-29T19:01:58.050Z,42.80
2018-09-29T19:04:26.080Z,41.90
2018-09-29T19:06:54.723Z,42.90
2018-09-29T19:09:22.639Z,43.00
2018-09-29T19:11:51.184Z,44.10
2018-09-29T19:14:19.042Z,43.80
2018-09-29T19:16:46.933Z,44.60
2018-09-29T19:19:14.623Z,43.50
2018-09-29T19:21:42.828Z,44.20
2018-09-29T19:24:10.642Z,44.40
2018-09-29T19:26:38.759Z,44.70
2018-09-29T19:29:06.589Z,43.60
2018-09-29T19:31:35.563Z,44.20
2018-09-29T19:34:03.369Z,45.10
2018-09-29T19:36:31.140Z,44.60
2018-09-29T19:38:59.458Z,44.80
2018-09-29T19:41:27.340Z,44.90
2018-09-29T19:43:55.509Z,46.00
2018-09-29T19:46:23.620Z,46.50
2018-09-29T19:48:52.734Z,46.60
2018-09-29T19:51:20.757Z,45.40
2018-09-29T19:53:48.770Z,45.90
2018-09-29T19:56:16.540Z,46.80
2018-09-29T19:58:44.473Z,44.90
2018-09-29T20:01:12.354Z,44.10
2018-09-29T20:03:40.337Z,44.00
2018-09-29T20:06:08.195Z,43.20
2018-09-29T20:08:36.364Z,43.80
2018-09-29T20:11:04.492Z,44.30
2018-09-29T20:13:33.388Z,44.80
2018-09-29T20:16:01.413Z,44.10
2018-09-29T20:18:29.845Z,45.00
2018-09-29T20:20:57.685Z,46.50
2018-09-29T20:23:26.553Z,46.50
2018-09-29T20:25:55.135Z,45.90
2018-09-29T20:28:23.050Z,46.30
2018-09-29T20:30:51.273Z,47.30
2018-09-29T20:33:19.285Z,47.70
2018-09-29T20:35:47.209Z,47.40
2018-09-29T20:38:15.767Z,47.60
2018-09-29T20:40:43.642Z,48.90
2018-09-29T20:43:11.604Z,48.10
2018-09-29T20:45:39.498Z,47.90
2018-09-29T20:48:07.637Z,49.30
2018-09-29T20:50:35.426Z,48.60
2018-09-29T20:53:06.665Z,48.20
2018-09-29T20:55:34.500Z,47.20
2018-09-29T20:58:02.525Z,48.00
2018-09-29T21:00:30.398Z,46.90
2018-09-29T21:02:58.292Z,48.40
2018-09-29T21:05:26.258Z,47.70
2018-09-29T21:07:54.308Z,47.50
2018-09-29T21:10:23.199Z,47.80
2018-09-29T21:12:52.389Z,47.90
2018-09-29T21:15:20.415Z,46.10
2018-09-29T21:17:49.659Z,44.70
2018-09-29T21:20:17.575Z,44.00
2018-09-29T21:22:45.791Z,41.20
2018-09-29T21:25:14.619Z,39.20
2018-09-29T21:27:42.406Z,38.70
2018-09-29T21:30:10.222Z,36.00
2018-09-29T21:32:38.165Z,36.60
2018-09-29T21:35:05.935Z,38.00
2018-09-29T21:37:33.625Z,36.60
2018-09-29T21:40:01.678Z,37.50
2018-09-29T21:42:29.492Z,35.80
2018-09-29T21:44:57.699Z,35.40
2018-09-29T21:47:25.789Z,35.80
2018-09-29T21:49:53.816Z,34.90
2018-09-29T21:52:21.583Z,35.30
2018-09-29T21:54:49.491Z,34.50
2018-09-29T21:57:17.229Z,34.00
2018-09-29T21:59:45.612Z,34.00
2018-09-29T22:02:13.337Z,33.70
2018-09-29T22:04:41.465Z,34.10
2018-09-29T22:07:09.157Z,34.60
2018-09-29T22:09:37.614Z,33.70
2018-09-29T22:12:05.932Z,34.50
2018-09-29T22:14:33.937Z,34.20
2018-09-29T22:17:02.017Z,34.50
2018-09-29T22:19:30.145Z,34.10
2018-09-29T22:21:58.859Z,34.60
2018-09-29T22:24:27.715Z,34.30
2018-09-29T22:26:55.788Z,33.70
2018-09-29T22:29:24.434Z,34.50
2018-09-29T22:31:52.486Z,35.90
2018-09-29T22:34:20.354Z,38.70
2018-09-29T22:36:48.070Z,36.70
2018-09-29T22:39:16.988Z,37.10
2018-09-29T22:41:45.946Z,35.90
2018-09-29T22:44:13.781Z,37.30
2018-09-29T22:46:41.480Z,36.10
2018-09-29T22:49:09.249Z,35.10
2018-09-29T22:51:37.670Z,35.10
2018-09-29T22:54:05.764Z,34.50
2018-09-29T22:56:33.468Z,34.90
2018-09-29T22:59:01.242Z,34.30
2018-09-29T23:01:29.199Z,34.40
2018-09-29T23:03:57.257Z,34.50
2018-09-29T23:06:25.832Z,34.60
2018-09-29T23:08:53.970Z,34.20
2018-09-29T23:11:21.928Z,34.30
2018-09-29T23:13:49.897Z,34.60
2018-09-29T23:16:17.806Z,34.60
2018-09-29T23:18:45.948Z,34.50
2018-09-29T23:21:14.153Z,34.10
2018-09-29T23:23:41.851Z,34.70
2018-09-29T23:26:10.354Z,34.70
2018-09-29T23:28:38.582Z,34.60
2018-09-29T23:31:07.768Z,34.50
2018-09-29T23:33:37.478Z,34.50
2018-09-29T23:36:06.349Z,34.60
2018-09-29T23:38:35.415Z,34.50
2018-09-29T23:41:03.648Z,34.50
2018-09-29T23:43:31.757Z,34.50
2018-09-29T23:46:01.004Z,34.40
2018-09-29T23:48:29.704Z,34.60
2018-09-29T23:50:58.132Z,34.40
2018-09-29T23:53:26.384Z,35.10
2018-09-29T23:55:54.569Z,34.70
2018-09-29T23:58:23.038Z,35.40
